Time;durP1;ratioP1;P1;durP2;ratioP2;P2;SDS_P1;SDS_P2;PMS_P1;PMS_P2;Temp;Humidity;BMP_temperature;BMP_pressure;BME280_temperature;BME280_humidity;BME280_pressure;Samples;Min_cycle;Max_cycle;Signal;HPM_P1;HPM_P2
2021/09/11 00:00:39;;;;;;;;;7.00;6.00;;;;;25.99;50.03;100974.00;6161105;23;45191;-88
2021/09/11 00:03:05;;;;;;;;;5.25;5.25;;;;;25.89;50.23;100960.22;6160636;23;50229;-86
2021/09/11 00:05:31;;;;;;;;;7.00;6.00;;;;;25.94;50.36;100971.53;6161592;23;45266;-86
2021/09/11 00:07:56;;;;;;;;;4.50;4.50;;;;;25.88;49.59;100961.16;6160804;22;45223;-86
2021/09/11 00:10:22;;;;;;;;;4.00;4.00;;;;;25.88;49.70;100962.00;6136015;23;45248;-86
2021/09/11 00:12:47;;;;;;;;;5.75;4.75;;;;;25.91;49.74;100964.56;6135350;23;47964;-87
2021/09/11 00:15:13;;;;;;;;;6.75;6.75;;;;;25.92;49.50;100970.75;6160764;23;45175;-86
2021/09/11 00:17:39;;;;;;;;;4.50;4.50;;;;;25.92;49.80;100970.75;6136203;23;45385;-86
2021/09/11 00:20:05;;;;;;;;;4.00;4.00;;;;;25.84;49.52;100956.91;6160476;23;45713;-86
2021/09/11 00:22:30;;;;;;;;;6.00;6.00;;;;;25.92;49.53;100971.63;6160830;23;46328;-87
2021/09/11 00:24:56;;;;;;;;;5.00;5.00;;;;;25.85;49.56;100959.50;6160492;23;45380;-87
2021/09/11 00:27:21;;;;;;;;;6.00;4.75;;;;;25.87;49.62;100970.13;6160505;23;45613;-88
2021/09/11 00:29:47;;;;;;;;;4.00;4.00;;;;;25.85;49.84;100967.53;6160369;23;45377;-87
2021/09/11 00:32:12;;;;;;;;;7.00;5.50;;;;;25.81;49.88;100962.44;6135752;23;48030;-87
2021/09/11 00:34:38;;;;;;;;;5.25;5.25;;;;;25.76;49.52;100953.75;6185551;23;46169;-88
2021/09/11 00:37:03;;;;;;;;;5.50;5.50;;;;;25.83;49.89;100965.88;6136111;23;45346;-87
2021/09/11 00:39:29;;;;;;;;;5.00;4.25;;;;;25.81;49.20;100962.44;6160039;23;45259;-88
2021/09/11 00:41:54;;;;;;;;;5.25;4.50;;;;;25.74;49.58;100951.16;6160402;23;48176;-87
2021/09/11 00:44:20;;;;;;;;;6.25;5.00;;;;;25.74;49.72;100955.66;6185869;23;45127;-87
2021/09/11 00:46:45;;;;;;;;;4.25;4.25;;;;;25.86;49.28;100963.91;6186402;23;45147;-87
2021/09/11 00:49:11;;;;;;;;;5.50;5.00;;;;;25.82;49.38;100959.66;6135747;23;45273;-87
2021/09/11 00:51:36;;;;;;;;;5.00;5.00;;;;;25.76;49.12;100951.09;6160124;23;47409;-87
2021/09/11 00:54:02;;;;;;;;;4.00;4.00;;;;;25.72;49.59;100944.19;6136016;23;45117;-88
2021/09/11 00:56:28;;;;;;;;;5.00;5.00;;;;;25.79;49.26;100954.47;6160570;23;45249;-87
2021/09/11 00:58:54;;;;;;;;;5.75;5.00;;;;;25.87;49.00;100979.00;6160930;23;45466;-87
2021/09/11 01:01:19;;;;;;;;;5.00;5.00;;;;;25.86;49.38;100963.03;6160390;23;47707;-87
2021/09/11 01:03:45;;;;;;;;;4.25;4.25;;;;;25.79;49.25;100965.16;6160841;23;45346;-87
2021/09/11 01:06:10;;;;;;;;;4.75;4.00;;;;;25.85;49.03;100974.69;6161239;23;45271;-87
2021/09/11 01:08:37;;;;;;;;;4.00;4.00;;;;;25.76;49.13;100959.09;6160795;22;45438;-87
2021/09/11 01:11:02;;;;;;;;;1.50;1.00;;;;;25.73;49.29;100956.59;6159839;22;47248;-88
2021/09/11 01:13:28;;;;;;;;;5.50;5.00;;;;;25.81;49.21;100974.00;6135312;23;45493;-87
2021/09/11 01:15:56;;;;;;;;;5.00;5.00;;;;;25.77;49.41;100967.03;6160541;23;45255;-87
2021/09/11 01:18:22;;;;;;;;;5.25;3.75;;;;;25.80;48.76;100982.97;6160376;23;45802;-88
2021/09/11 01:20:47;;;;;;;;;4.00;4.00;;;;;25.76;48.86;100984.03;6160348;23;45239;-88
2021/09/11 01:23:12;;;;;;;;;6.00;5.00;;;;;25.75;48.67;100974.28;6159974;23;48377;-87
2021/09/11 01:25:38;;;;;;;;;5.00;5.00;;;;;25.79;48.24;100983.88;6160443;23;45499;-88
2021/09/11 01:28:04;;;;;;;;;4.00;4.00;;;;;25.69;48.82;100981.72;6135057;23;45487;-87
2021/09/11 01:30:29;;;;;;;;;3.50;3.50;;;;;25.73;49.43;100992.22;6135398;23;47007;-87
2021/09/11 01:32:55;;;;;;;;;4.75;4.50;;;;;25.70;48.58;100986.09;6159773;22;45546;-88
2021/09/11 01:35:20;;;;;;;;;5.00;3.25;;;;;25.62;48.67;100967.78;6134855;23;46753;-87
2021/09/11 01:37:45;;;;;;;;;3.75;3.25;;;;;25.68;48.48;100977.31;6160552;23;45443;-87
2021/09/11 01:40:11;;;;;;;;;3.25;3.25;;;;;25.68;48.77;100986.19;6184616;23;45921;-88
2021/09/11 01:42:37;;;;;;;;;4.00;4.00;;;;;25.64;48.81;100987.28;6160256;23;45365;-87
2021/09/11 01:45:10;;;;;;;;;5.00;5.00;;;;;25.70;48.31;100996.81;6160050;23;45267;-87
2021/09/11 01:47:36;;;;;;;;;4.75;4.75;;;;;25.70;48.62;100996.81;6161222;23;45362;-88
2021/09/11 01:50:02;;;;;;;;;4.50;4.25;;;;;25.62;48.68;100978.47;6135147;23;47318;-87
2021/09/11 01:52:28;;;;;;;;;4.00;4.00;;;;;25.62;48.52;100983.81;6160392;23;45659;-87
2021/09/11 01:54:53;;;;;;;;;4.00;4.00;;;;;25.72;48.28;100995.84;6160342;23;45297;-88
2021/09/11 01:57:19;;;;;;;;;5.00;5.00;;;;;25.66;47.90;100982.72;6160438;23;45190;-87
2021/09/11 01:59:44;;;;;;;;;4.00;4.00;;;;;25.67;48.56;100989.81;6185398;23;45315;-88
2021/09/11 02:02:10;;;;;;;;;5.25;4.00;;;;;25.57;48.11;100965.34;6160172;23;45175;-88
2021/09/11 02:04:38;;;;;;;;;4.25;4.25;;;;;25.56;48.07;100968.09;6160695;23;45215;-87
2021/09/11 02:07:04;;;;;;;;;3.25;3.25;;;;;25.59;48.23;100987.50;6161261;23;45511;-87
2021/09/11 02:09:30;;;;;;;;;4.00;4.00;;;;;25.54;48.15;100973.53;6185302;22;47233;-88
2021/09/11 02:11:56;;;;;;;;;4.00;3.00;;;;;25.51;48.29;100972.78;6159759;23;45613;-88
2021/09/11 02:14:21;;;;;;;;;5.25;4.00;;;;;25.53;48.32;100979.78;6160505;23;45806;-87
2021/09/11 02:16:47;;;;;;;;;3.75;3.75;;;;;25.57;47.83;100988.53;6160772;23;45346;-88
2021/09/11 02:19:12;;;;;;;;;4.00;4.00;;;;;25.51;48.24;100983.47;6161701;23;47216;-87
2021/09/11 02:21:38;;;;;;;;;4.25;4.25;;;;;25.46;48.53;100982.84;6162524;23;45214;-88
2021/09/11 02:24:04;;;;;;;;;4.75;4.75;;;;;25.45;48.38;100976.63;6188546;23;45233;-88
2021/09/11 02:26:29;;;;;;;;;4.50;4.00;;;;;25.50;48.30;100982.63;6161331;23;45672;-87
2021/09/11 02:28:55;;;;;;;;;6.00;6.00;;;;;25.44;47.94;100974.03;6160321;23;47185;-88
2021/09/11 02:31:20;;;;;;;;;4.25;3.50;;;;;25.46;48.37;100977.50;6186473;23;45218;-87
2021/09/11 02:33:47;;;;;;;;;4.00;4.00;;;;;25.45;47.92;100975.75;6161519;23;45352;-88
2021/09/11 02:36:13;;;;;;;;;4.00;4.00;;;;;25.43;48.25;100975.84;6161761;23;45399;-88
2021/09/11 02:38:38;;;;;;;;;5.50;4.25;;;;;25.40;48.30;100972.47;6186842;23;46063;-87
2021/09/11 02:41:03;;;;;;;;;5.00;5.00;;;;;25.47;48.50;100987.25;6188238;23;45568;-87
2021/09/11 02:43:29;;;;;;;;;6.25;4.50;;;;;25.39;48.22;100965.38;6161458;23;45385;-87
2021/09/11 02:45:54;;;;;;;;;3.50;3.00;;;;;25.40;48.36;100977.81;6161579;23;46086;-87
2021/09/11 02:48:20;;;;;;;;;7.25;5.50;;;;;25.45;48.43;100981.97;6161379;23;46930;-88
2021/09/11 02:50:45;;;;;;;;;3.00;3.00;;;;;25.41;48.40;100967.03;6161225;23;45235;-88
2021/09/11 02:53:13;;;;;;;;;4.00;3.00;;;;;25.48;48.16;100986.31;6135815;23;48719;-88
2021/09/11 02:55:39;;;;;;;;;4.00;4.00;;;;;25.36;48.48;100961.03;6187726;23;45190;-88
2021/09/11 02:58:04;;;;;;;;;3.50;3.50;;;;;25.42;48.10;100968.75;6161080;23;45295;-88
2021/09/11 03:00:30;;;;;;;;;3.75;3.75;;;;;25.43;48.26;100969.63;6136455;23;45206;-88
2021/09/11 03:02:55;;;;;;;;;3.00;3.00;;;;;25.39;47.97;100966.25;6186768;23;45644;-88
2021/09/11 03:05:20;;;;;;;;;4.50;4.50;;;;;25.45;47.50;100986.44;6161446;23;45468;-88
2021/09/11 03:07:46;;;;;;;;;5.75;4.25;;;;;25.43;47.83;100978.50;6161148;23;47411;-87
2021/09/11 03:10:11;;;;;;;;;3.00;3.00;;;;;25.37;48.14;100970.81;6160744;23;53708;-88
2021/09/11 03:12:37;;;;;;;;;4.00;4.00;;;;;25.33;47.75;100963.88;6160741;23;45251;-88
2021/09/11 03:15:03;;;;;;;;;4.75;3.00;;;;;25.39;48.15;100974.25;6161315;23;45871;-88
2021/09/11 03:17:29;;;;;;;;;4.00;4.00;;;;;25.30;47.43;100950.66;6160498;23;48307;-88
2021/09/11 03:19:54;;;;;;;;;4.75;4.75;;;;;25.38;47.94;100964.53;6186643;23;45250;-88
2021/09/11 03:22:19;;;;;;;;;4.25;4.00;;;;;25.30;48.08;100962.22;6161389;23;45405;-88
2021/09/11 03:24:45;;;;;;;;;3.25;3.25;;;;;25.34;48.11;100976.28;6160500;23;45291;-88
2021/09/11 03:27:10;;;;;;;;;3.50;3.50;;;;;25.40;47.81;100983.16;6161150;23;46500;-88
2021/09/11 03:29:36;;;;;;;;;6.00;4.25;;;;;25.38;48.10;100982.38;6136080;23;45698;-87
2021/09/11 03:32:01;;;;;;;;;4.75;4.75;;;;;25.38;47.66;100980.56;6161542;23;45238;-88
2021/09/11 03:34:26;;;;;;;;;4.00;3.00;;;;;25.33;47.98;100972.75;6161039;23;45563;-88
2021/09/11 03:36:52;;;;;;;;;2.50;2.00;;;;;25.38;47.73;100982.38;6162871;23;45300;-88
2021/09/11 03:39:17;;;;;;;;;5.50;5.50;;;;;25.33;47.61;100980.75;6160689;23;45308;-88
2021/09/11 03:41:43;;;;;;;;;4.75;3.75;;;;;25.29;47.23;100973.00;6160971;23;45954;-88
2021/09/11 03:44:09;;;;;;;;;5.00;3.00;;;;;25.20;47.75;100960.94;6135646;23;45369;-87
2021/09/11 03:46:34;;;;;;;;;3.75;3.75;;;;;25.16;47.56;100961.13;6161089;22;47019;-87
2021/09/11 03:49:00;;;;;;;;;3.50;3.50;;;;;25.18;47.78;100968.13;6135793;23;45798;-87
2021/09/11 03:51:32;;;;;;;;;5.00;3.00;;;;;25.09;47.82;100952.53;6161177;23;45267;-87
2021/09/11 03:53:57;;;;;;;;;4.00;4.00;;;;;25.10;48.04;100964.97;6162490;22;45379;-87
2021/09/11 03:56:23;;;;;;;;;4.75;4.75;;;;;25.18;47.79;100975.28;6160472;23;47466;-87
2021/09/11 03:58:48;;;;;;;;;3.50;2.50;;;;;25.20;47.63;100984.13;6161246;23;45305;-88
2021/09/11 04:01:14;;;;;;;;;3.50;3.50;;;;;25.12;48.11;100973.78;6160849;23;45944;-87
2021/09/11 04:03:39;;;;;;;;;4.00;4.00;;;;;25.12;47.68;100976.47;6160852;23;45535;-88
2021/09/11 04:06:05;;;;;;;;;2.25;2.25;;;;;25.16;48.27;100979.84;6135656;23;52455;-88
2021/09/11 04:08:31;;;;;;;;;3.00;3.00;;;;;25.16;47.82;100985.19;6160829;23;45175;-88
2021/09/11 04:10:57;;;;;;;;;3.25;3.25;;;;;25.15;47.22;100981.66;6160484;23;45210;-87
2021/09/11 04:13:23;;;;;;;;;4.00;4.00;;;;;25.18;47.43;100992.16;6160359;23;45406;-88
2021/09/11 04:15:51;;;;;;;;;3.25;3.25;;;;;25.12;47.68;100981.81;6161192;23;45549;-87
2021/09/11 04:18:16;;;;;;;;;5.00;4.00;;;;;25.08;47.65;100981.06;6160673;23;45328;-87
2021/09/11 04:20:42;;;;;;;;;3.00;3.00;;;;;25.07;47.86;100978.47;6160570;23;45289;-87
2021/09/11 04:23:07;;;;;;;;;4.00;4.00;;;;;25.08;48.10;100982.88;6160526;23;45243;-88
2021/09/11 04:25:33;;;;;;;;;2.75;2.75;;;;;25.09;47.40;100979.25;6160402;23;45352;-87
2021/09/11 04:27:58;;;;;;;;;3.00;3.00;;;;;25.12;47.31;100995.16;6160601;23;45559;-87
2021/09/11 04:30:23;;;;;;;;;5.00;5.00;;;;;25.07;47.41;100984.69;6135924;23;45377;-88
2021/09/11 04:32:49;;;;;;;;;4.00;4.00;;;;;25.07;47.91;100989.16;6160915;23;46189;-88
2021/09/11 04:35:14;;;;;;;;;3.00;3.00;;;;;25.07;47.27;100991.81;6160249;23;47384;-88
2021/09/11 04:37:40;;;;;;;;;4.25;3.25;;;;;25.11;48.16;100989.84;6160550;23;45417;-88
2021/09/11 04:40:06;;;;;;;;;4.00;2.75;;;;;25.02;48.11;100975.09;6159893;22;45190;-88
2021/09/11 04:42:31;;;;;;;;;4.00;3.75;;;;;24.99;47.84;100961.91;6165632;22;45124;-88
2021/09/11 04:44:57;;;;;;;;;3.75;3.25;;;;;25.10;47.75;100986.31;6165245;22;47168;-88
2021/09/11 04:47:22;;;;;;;;;3.00;2.50;;;;;25.08;47.67;100990.88;6190716;22;45860;-88
2021/09/11 04:49:48;;;;;;;;;3.75;3.75;;;;;25.06;47.86;100990.09;6190423;22;45192;-88
2021/09/11 04:52:13;;;;;;;;;3.00;3.00;;;;;24.97;48.00;100980.69;6190451;22;45162;-89
2021/09/11 04:54:39;;;;;;;;;4.50;4.00;;;;;25.06;47.87;100990.97;6190462;22;47749;-88
2021/09/11 04:57:04;;;;;;;;;3.00;3.00;;;;;25.00;47.78;100988.53;6189840;22;46781;-88
2021/09/11 04:59:30;;;;;;;;;0.75;0.50;;;;;25.08;47.44;101004.22;6190958;22;45289;-89
2021/09/11 05:01:57;;;;;;;;;3.00;3.00;;;;;25.02;47.75;100994.72;6165596;22;45448;-88
2021/09/11 05:04:22;;;;;;;;;3.25;3.25;;;;;25.00;47.99;100995.69;6190845;22;46763;-88
2021/09/11 05:06:48;;;;;;;;;5.25;3.50;;;;;24.99;47.66;100989.47;6216506;22;45217;-88
2021/09/11 05:09:13;;;;;;;;;4.75;3.75;;;;;25.00;47.34;100993.00;6190803;22;45493;-89
2021/09/11 05:11:39;;;;;;;;;4.00;4.00;;;;;25.00;47.63;100991.19;6190002;22;45409;-87
2021/09/11 05:14:10;;;;;;;;;3.50;3.50;;;;;24.93;47.81;100996.91;6190934;22;45688;-89
2021/09/11 05:16:35;;;;;;;;;3.00;3.00;;;;;24.95;47.62;100998.56;6190405;22;45327;-88
2021/09/11 05:19:01;;;;;;;;;2.00;2.00;;;;;24.93;47.58;100991.56;6190687;22;45368;-89
2021/09/11 05:21:31;;;;;;;;;3.00;3.00;;;;;24.99;47.61;101004.63;6165355;22;45599;-88
2021/09/11 05:24:00;;;;;;;;;5.75;3.75;;;;;24.86;47.37;100979.44;6191522;22;47165;-89
2021/09/11 05:26:31;;;;;;;;;2.25;2.00;;;;;24.88;47.34;101001.59;6165349;22;45408;-89
2021/09/11 05:29:00;;;;;;;;;5.00;5.00;;;;;24.84;47.86;100991.97;6191924;22;45187;-88
2021/09/11 05:31:28;;;;;;;;;4.00;4.00;;;;;24.92;47.45;101012.06;6166850;22;45389;-87
2021/09/11 05:36:56;;;;;;;;;4.25;4.00;;;;;24.83;48.22;101012.47;6181500;22;45232;-87
2021/09/11 05:39:24;;;;;;;;;4.00;3.00;;;;;24.73;47.73;100998.69;6223581;22;45333;-89
2021/09/11 05:41:50;;;;;;;;;3.75;3.75;;;;;24.73;47.86;100996.00;6181748;22;45126;-89
2021/09/11 05:44:32;;;;;;;;;;;;;;;;;;;;;
2021/09/11 05:46:58;;;;;;;;;2.25;2.25;;;;;24.76;47.95;101003.03;6219543;22;72985;-89
2021/09/11 05:49:25;;;;;;;;;3.50;3.50;;;;;24.73;48.19;101001.34;6192772;22;45339;-89
2021/09/11 05:51:57;;;;;;;;;7.00;4.00;;;;;24.79;47.77;101017.09;6192500;22;45246;-89
2021/09/11 05:54:32;;;;;;;;;;;;;;;;;;;;;
2021/09/11 05:57:26;;;;;;;;;2.50;2.00;;;;;24.69;47.63;101013.13;6192956;22;72522;-86
2021/09/11 06:00:00;;;;;;;;;5.00;5.00;;;;;24.79;48.07;101035.78;6194964;22;45521;-86
2021/09/11 06:02:30;;;;;;;;;4.25;4.25;;;;;24.80;47.93;101033.97;6191681;22;45404;-88
2021/09/11 06:04:55;;;;;;;;;3.25;3.25;;;;;24.73;48.07;101021.84;6190870;22;46904;-88
2021/09/11 06:07:24;;;;;;;;;5.75;4.75;;;;;24.81;47.92;101038.38;6165069;22;45179;-88
2021/09/11 06:09:49;;;;;;;;;3.50;3.00;;;;;24.90;48.12;101055.78;6190592;22;45475;-88
2021/09/11 06:12:18;;;;;;;;;5.50;5.00;;;;;24.87;47.79;101048.78;6216223;22;45575;-88
2021/09/11 06:14:43;;;;;;;;;6.00;6.00;;;;;24.92;47.87;101056.59;6215868;22;45334;-88
2021/09/11 06:17:12;;;;;;;;;5.00;5.00;;;;;24.83;47.65;101038.31;6192546;22;45191;-87
2021/09/11 06:19:40;;;;;;;;;2.25;2.25;;;;;24.94;47.78;101068.09;6167200;22;45170;-88
2021/09/11 06:22:09;;;;;;;;;4.00;4.00;;;;;24.84;47.27;101051.59;6190897;22;45452;-89
2021/09/11 06:24:44;;;;;;;;;5.50;3.50;;;;;24.80;47.46;101048.19;6190769;22;46317;-87
2021/09/11 06:27:15;;;;;;;;;3.25;3.25;;;;;24.89;47.69;101062.06;6191361;22;45201;-88
2021/09/11 06:29:40;;;;;;;;;5.25;5.25;;;;;24.87;47.37;101061.28;6190407;22;45379;-87
2021/09/11 06:32:06;;;;;;;;;3.00;3.00;;;;;24.89;47.82;101062.06;6190370;22;45447;-88
2021/09/11 06:34:32;;;;;;;;;3.75;3.75;;;;;24.92;47.34;101053.91;6164916;22;48065;-89
2021/09/11 06:37:31;;;;;;;;;4.00;3.00;;;;;24.97;47.44;101065.25;6227936;22;45331;-87
2021/09/11 06:39:59;;;;;;;;;3.75;2.25;;;;;24.88;47.44;101047.00;6189779;22;45190;-85
2021/09/11 06:42:24;;;;;;;;;4.25;3.50;;;;;24.92;47.24;101035.22;6216762;22;45495;-85
2021/09/11 06:44:50;;;;;;;;;2.75;2.75;;;;;25.01;46.91;101056.16;6167019;22;46996;-85
2021/09/11 06:47:15;;;;;;;;;4.25;3.75;;;;;25.03;47.44;101073.03;6189897;22;45371;-85
2021/09/11 06:49:41;;;;;;;;;3.00;3.00;;;;;25.06;47.01;101071.09;6189980;22;45273;-86
2021/09/11 06:52:07;;;;;;;;;3.00;2.00;;;;;25.01;46.90;101069.50;6189812;22;45565;-86
2021/09/11 06:54:42;;;;;;;;;3.00;3.00;;;;;25.13;46.68;101090.38;6215353;22;45336;-85
2021/09/11 06:57:07;;;;;;;;;3.25;2.00;;;;;25.11;46.70;101068.22;6189633;22;45471;-85
2021/09/11 06:59:51;;;;;;;;;5.25;2.50;;;;;25.09;46.43;101062.91;6189536;22;45336;-86
2021/09/11 07:02:25;;;;;;;;;3.00;2.00;;;;;25.14;46.34;101064.53;6189290;22;45483;-87
2021/09/11 07:04:51;;;;;;;;;3.00;2.00;;;;;25.23;46.19;101078.31;6190196;22;46099;-87
2021/09/11 07:07:16;;;;;;;;;3.50;2.50;;;;;25.28;45.92;101081.66;6190061;22;45410;-86
2021/09/11 07:09:47;;;;;;;;;2.00;2.00;;;;;25.29;45.92;101080.72;6164628;22;45274;-87
2021/09/11 07:12:13;;;;;;;;;2.00;2.00;;;;;25.30;45.71;101070.91;6215484;22;45870;-85
2021/09/11 07:14:38;;;;;;;;;2.00;2.00;;;;;25.42;45.68;101096.16;6214790;22;45448;-85
2021/09/11 07:17:04;;;;;;;;;2.75;2.50;;;;;25.44;45.79;101104.97;6190883;22;45358;-85
2021/09/11 07:19:32;;;;;;;;;2.25;2.25;;;;;25.45;45.73;101106.69;6190922;22;45392;-86
2021/09/11 07:21:58;;;;;;;;;3.00;2.50;;;;;25.34;45.82;101086.69;6190559;22;45583;-86
2021/09/11 07:24:25;;;;;;;;;2.00;2.00;;;;;25.35;45.58;101083.06;6215845;22;47499;-86
2021/09/11 07:26:54;;;;;;;;;3.00;3.00;;;;;25.43;45.55;101087.19;6191658;22;45211;-86
2021/09/11 07:29:37;;;;;;;;;3.25;3.00;;;;;25.49;45.71;101094.94;6165793;22;45510;-86
2021/09/11 07:32:27;;;;;;;;;3.50;3.00;;;;;25.51;45.51;101093.06;6218437;22;45954;-87
2021/09/11 07:35:04;;;;;;;;;2.00;2.00;;;;;25.54;44.92;101079.53;6184283;22;47312;-87
2021/09/11 07:37:30;;;;;;;;;1.75;1.00;;;;;25.60;44.76;101087.28;6192897;22;45236;-87
2021/09/11 07:40:28;;;;;;;;;2.50;2.50;;;;;25.62;44.85;101082.72;6165185;22;45208;-88
2021/09/11 07:42:54;;;;;;;;;1.00;1.00;;;;;25.69;44.78;101094.00;6166986;22;45460;-87
2021/09/11 07:45:39;;;;;;;;;1.75;1.75;;;;;25.76;44.27;101098.13;6190278;22;46162;-87
2021/09/11 07:48:17;;;;;;;;;3.25;2.00;;;;;25.73;44.74;101088.47;6194537;22;45418;-86
2021/09/11 07:51:00;;;;;;;;;1.00;1.00;;;;;25.77;44.22;101083.81;6192189;22;45401;-87
2021/09/11 07:53:26;;;;;;;;;1.00;0.00;;;;;25.79;44.03;101090.81;6196788;22;45332;-88
2021/09/11 07:55:53;;;;;;;;;0.75;0.75;;;;;25.88;44.11;101102.88;6216149;22;45363;-88
2021/09/11 07:58:39;;;;;;;;;1.50;1.50;;;;;25.80;44.25;101089.00;6190804;22;45426;-88
2021/09/11 08:01:04;;;;;;;;;1.00;1.00;;;;;25.84;43.50;101096.81;6216269;22;45207;-87
2021/09/11 08:03:30;;;;;;;;;3.25;2.25;;;;;25.96;44.12;101115.88;6191156;22;45203;-87
2021/09/11 08:07:00;;;;;;;;;;;;;;;;;;;;;
2021/09/11 08:09:28;;;;;;;;;1.75;1.75;;;;;25.96;43.81;101099.84;6200297;22;71567;-86
2021/09/11 08:11:54;;;;;;;;;1.75;1.75;;;;;26.08;44.01;101132.22;6191902;22;45382;-87
2021/09/11 08:14:19;;;;;;;;;2.00;2.00;;;;;25.98;43.83;101109.53;6190419;22;45257;-87
2021/09/11 08:16:47;;;;;;;;;2.75;2.75;;;;;26.03;43.56;101120.00;6190614;22;45543;-87
2021/09/11 08:19:19;;;;;;;;;1.75;1.75;;;;;26.01;43.68;101119.22;6191067;22;45265;-88
2021/09/11 08:21:44;;;;;;;;;4.00;2.00;;;;;26.07;43.49;101129.63;6191259;22;45135;-89
2021/09/11 08:24:14;;;;;;;;;2.00;1.50;;;;;26.05;43.24;101131.47;6190389;22;45208;-87
2021/09/11 08:26:40;;;;;;;;;1.25;1.00;;;;;26.08;43.41;101134.88;6189721;22;46269;-88
2021/09/11 08:29:09;;;;;;;;;2.00;2.00;;;;;26.01;43.23;101124.56;6215357;22;45241;-86
2021/09/11 08:31:34;;;;;;;;;3.25;1.50;;;;;26.10;43.58;101140.16;6215803;22;45262;-87
2021/09/11 08:33:59;;;;;;;;;3.00;3.00;;;;;26.02;43.56;101121.81;6190354;22;45517;-87
2021/09/11 08:36:25;;;;;;;;;1.00;1.00;;;;;26.08;43.08;101132.22;6165374;22;47150;-87
2021/09/11 08:38:53;;;;;;;;;1.75;0.00;;;;;26.10;42.92;101135.69;6214746;22;45428;-88
2021/09/11 08:41:19;;;;;;;;;1.25;1.25;;;;;26.03;42.79;101131.56;6217518;22;45273;-88
2021/09/11 08:43:44;;;;;;;;;2.00;1.25;;;;;25.99;42.81;101121.97;6216821;22;45301;-87
2021/09/11 08:46:09;;;;;;;;;4.50;2.00;;;;;26.00;42.65;101129.03;6241461;22;46877;-87
2021/09/11 08:48:35;;;;;;;;;6.00;4.00;;;;;26.06;43.05;101128.75;6193569;22;46082;-87
2021/09/11 08:51:00;;;;;;;;;4.00;2.75;;;;;26.11;43.01;101147.25;6173043;22;45210;-85
2021/09/11 08:53:26;;;;;;;;;1.00;1.00;;;;;26.11;43.23;101140.06;6222535;22;45212;-86
2021/09/11 08:56:01;;;;;;;;;;;;;;;;;;;;;
2021/09/11 08:58:27;;;;;;;;;1.50;1.50;;;;;26.20;42.58;101150.31;6195269;22;74014;-86
2021/09/11 09:00:55;;;;;;;;;3.50;3.00;;;;;26.14;42.67;101139.91;6196136;22;45560;-85
2021/09/11 09:03:37;;;;;;;;;2.00;2.00;;;;;26.15;42.74;101127.41;6194809;22;45414;-85
2021/09/11 09:06:16;;;;;;;;;1.50;1.25;;;;;26.26;42.54;101142.94;6193268;22;47949;-85
2021/09/11 09:08:43;;;;;;;;;1.50;1.50;;;;;26.25;42.20;101130.53;6215767;22;45259;-85
2021/09/11 09:11:20;;;;;;;;;1.50;1.25;;;;;26.28;42.09;101141.91;6190640;22;45469;-86
2021/09/11 09:13:49;;;;;;;;;2.50;2.00;;;;;26.35;41.99;101148.72;6217373;22;45358;-86
2021/09/11 09:16:18;;;;;;;;;2.00;2.00;;;;;26.29;41.76;101127.59;6241166;22;48121;-86
2021/09/11 09:18:44;;;;;;;;;3.50;2.00;;;;;26.30;42.08;101126.66;6216009;22;45224;-85
2021/09/11 09:21:49;;;;;;;;;2.00;2.00;;;;;26.43;42.17;101138.53;6190351;22;45404;-84
2021/09/11 09:24:36;;;;;;;;;2.00;2.00;;;;;26.49;42.07;101137.31;6241117;22;45496;-85
2021/09/11 09:27:38;;;;;;;;;2.00;2.00;;;;;26.48;41.92;101131.09;6215465;22;48169;-86
2021/09/11 09:30:04;;;;;;;;;2.25;2.25;;;;;26.45;41.54;101112.53;6207229;22;45214;-86
2021/09/11 09:32:36;;;;;;;;;4.00;3.00;;;;;26.47;42.07;101116.00;6215504;22;45357;-86
2021/09/11 09:35:15;;;;;;;;;2.25;2.25;;;;;26.56;42.03;101122.69;6190221;22;45202;-87
2021/09/11 09:37:52;;;;;;;;;2.25;2.25;;;;;26.61;41.99;101127.81;6217855;22;45530;-86
2021/09/11 09:40:34;;;;;;;;;2.00;2.00;;;;;26.61;41.09;101119.78;6163876;22;45399;-85
2021/09/11 09:43:00;;;;;;;;;2.50;2.00;;;;;26.59;41.67;101103.81;6190960;22;45399;-85
2021/09/11 09:45:35;;;;;;;;;3.00;3.00;;;;;26.75;41.84;101128.81;6190028;22;45435;-84
2021/09/11 09:48:08;;;;;;;;;7.75;5.50;;;;;26.71;40.80;101119.22;6192758;22;48465;-86
2021/09/11 09:50:45;;;;;;;;;4.75;4.00;;;;;26.72;41.23;101117.41;6191483;22;45175;-85
2021/09/11 09:53:11;;;;;;;;;6.00;5.00;;;;;26.81;40.88;101129.47;6190482;22;45443;-87
2021/09/11 09:55:58;;;;;;;;;;;;;;;;;;;;;
2021/09/11 09:58:36;;;;;;;;;3.75;3.25;;;;;26.82;41.06;101120.47;6199171;22;74611;-85
2021/09/11 10:01:10;;;;;;;;;3.25;3.25;;;;;26.79;41.00;101113.47;6227538;22;44746;-86
2021/09/11 10:03:44;;;;;;;;;2.25;2.25;;;;;26.78;40.66;101119.78;6219024;22;45233;-86
2021/09/11 10:06:37;;;;;;;;;3.00;2.00;;;;;26.83;40.36;101125.75;6215925;22;45279;-85
2021/09/11 10:09:06;;;;;;;;;2.25;2.25;;;;;26.76;40.28;101117.19;6215032;22;47090;-87
2021/09/11 10:12:16;;;;;;;;;3.00;2.00;;;;;26.81;40.46;101121.41;6190047;22;45231;-86
2021/09/11 10:14:48;;;;;;;;;3.25;3.00;;;;;26.72;39.69;101106.69;6182051;22;45361;-88
2021/09/11 10:17:22;;;;;;;;;3.00;2.75;;;;;26.84;40.17;101123.94;6190605;22;45203;-85
2021/09/11 10:19:56;;;;;;;;;2.25;2.25;;;;;26.72;39.86;101112.91;6215108;22;45342;-87
2021/09/11 10:22:24;;;;;;;;;3.00;2.25;;;;;26.70;39.60;101113.97;6189777;22;45686;-86
2021/09/11 10:25:37;;;;;;;;;3.00;3.00;;;;;26.73;40.36;101121.81;6190743;22;45295;-86
2021/09/11 10:28:22;;;;;;;;;3.25;3.00;;;;;26.76;40.22;101122.53;6209303;22;45194;-87
2021/09/11 10:31:04;;;;;;;;;4.25;4.00;;;;;26.70;40.45;101114.81;6217842;22;45352;-86
2021/09/11 10:33:45;;;;;;;;;1.50;1.50;;;;;26.77;40.37;101126.09;6190374;22;45184;-85
2021/09/11 10:36:17;;;;;;;;;2.50;2.00;;;;;26.68;39.60;101108.69;6217563;22;45335;-87
2021/09/11 10:38:45;;;;;;;;;2.75;2.75;;;;;26.66;40.28;101107.88;6190474;22;45456;-86
2021/09/11 10:41:13;;;;;;;;;1.25;1.25;;;;;26.76;40.45;101119.00;6189403;22;46626;-86
2021/09/11 10:44:08;;;;;;;;;1.00;1.00;;;;;26.68;40.28;101105.16;6190640;22;45373;-86
2021/09/11 10:46:49;;;;;;;;;1.00;1.00;;;;;26.68;40.25;101099.78;6189669;22;45384;-86
2021/09/11 10:49:47;;;;;;;;;7.00;4.75;;;;;26.73;40.52;101103.94;6240653;22;46025;-86
2021/09/11 10:52:21;;;;;;;;;2.75;2.50;;;;;26.70;40.75;101103.25;6165283;22;46469;-85
2021/09/11 10:54:47;;;;;;;;;2.75;2.75;;;;;26.68;40.60;101100.66;6192477;22;45376;-85
2021/09/11 10:57:14;;;;;;;;;3.75;3.50;;;;;26.71;40.51;101102.28;6190817;22;45323;-85
2021/09/11 10:59:42;;;;;;;;;3.00;3.00;;;;;26.74;39.62;101112.84;6192063;22;45483;-86
2021/09/11 11:02:34;;;;;;;;;4.00;3.50;;;;;26.68;40.20;101106.00;6191358;22;48054;-86
2021/09/11 11:05:10;;;;;;;;;2.00;2.00;;;;;26.75;39.98;101123.47;6191943;22;45134;-87
2021/09/11 11:07:48;;;;;;;;;3.50;3.50;;;;;26.67;40.63;101108.75;6217349;22;45282;-86
2021/09/11 11:10:21;;;;;;;;;5.00;4.00;;;;;26.66;40.48;101109.69;6167569;22;45465;-86
2021/09/11 11:12:49;;;;;;;;;5.25;4.25;;;;;26.69;40.84;101118.44;6166105;22;46756;-86
2021/09/11 11:15:22;;;;;;;;;2.25;2.25;;;;;26.65;40.63;101100.78;6165652;22;45458;-85
2021/09/11 11:17:51;;;;;;;;;3.50;3.00;;;;;26.69;40.48;101107.75;6193145;22;45126;-86
2021/09/11 11:20:27;;;;;;;;;3.00;3.00;;;;;26.67;40.36;101098.94;6191084;22;45352;-86
2021/09/11 11:23:01;;;;;;;;;6.00;4.75;;;;;26.68;40.63;101107.81;6191136;22;47299;-87
2021/09/11 11:25:36;;;;;;;;;4.00;3.50;;;;;26.71;40.84;101104.97;6192553;22;45806;-86
2021/09/11 11:28:05;;;;;;;;;3.00;2.25;;;;;26.72;40.50;101104.88;6191743;22;45396;-87
2021/09/11 11:30:34;;;;;;;;;4.00;3.00;;;;;26.70;40.66;101105.91;6220425;22;45138;-86
2021/09/11 11:33:04;;;;;;;;;4.75;3.00;;;;;26.65;40.36;101097.25;6193105;22;45533;-87
2021/09/11 11:35:29;;;;;;;;;5.50;4.00;;;;;26.59;40.38;101087.75;6192233;22;45660;-87
2021/09/11 11:37:57;;;;;;;;;5.25;1.75;;;;;26.67;40.80;101104.28;6196555;22;45241;-87
2021/09/11 11:40:25;;;;;;;;;2.50;2.50;;;;;26.70;40.47;101103.25;6193810;22;45323;-86
2021/09/11 11:42:55;;;;;;;;;2.50;2.50;;;;;26.70;40.95;101103.25;6204394;22;45494;-87
2021/09/11 11:45:24;;;;;;;;;2.25;2.25;;;;;26.70;40.61;101109.47;6196266;22;45233;-86